Time;durP1;ratioP1;P1;durP2;ratioP2;P2;SDS_P1;SDS_P2;PMS_P1;PMS_P2;Temp;Humidity;BMP_temperature;BMP_pressure;BME280_temperature;BME280_humidity;BME280_pressure;Samples;Min_cycle;Max_cycle;Signal;HPM_P1;HPM_P2
2022/06/08 00:02:16;;;;;;;4.53;3.63;;;19.60;99.90;;;;;;5077664;28;20467;-38
2022/06/08 00:04:43;;;;;;;4.53;3.73;;;19.60;99.90;;;;;;5077544;28;20458;-36
2022/06/08 00:07:11;;;;;;;5.10;3.90;;;19.50;99.90;;;;;;5077629;28;20502;-36
2022/06/08 00:09:40;;;;;;;5.40;3.80;;;19.50;99.90;;;;;;5077445;28;20455;-34
2022/06/08 00:12:09;;;;;;;4.10;3.70;;;19.50;99.90;;;;;;5077583;28;20458;-34
2022/06/08 00:14:36;;;;;;;4.83;4.30;;;19.50;99.90;;;;;;5077302;28;20535;-34
2022/06/08 00:17:03;;;;;;;9.40;5.73;;;19.50;99.90;;;;;;5077345;28;20408;-42
2022/06/08 00:19:30;;;;;;;4.87;3.60;;;19.50;99.90;;;;;;5077856;28;20438;-37
2022/06/08 00:21:57;;;;;;;3.90;3.60;;;19.40;99.90;;;;;;5059699;28;20920;-38
2022/06/08 00:24:24;;;;;;;6.87;4.47;;;19.40;99.90;;;;;;5076937;28;20510;-37
2022/06/08 00:26:53;;;;;;;6.80;4.90;;;19.40;99.90;;;;;;5076582;28;20487;-37
2022/06/08 00:29:20;;;;;;;6.80;4.47;;;19.40;99.90;;;;;;5076776;28;20450;-38
2022/06/08 00:31:47;;;;;;;6.27;4.20;;;19.40;99.90;;;;;;5077047;28;20470;-38
2022/06/08 00:34:14;;;;;;;8.30;3.70;;;19.40;99.90;;;;;;5077525;28;20435;-37
2022/06/08 00:36:41;;;;;;;5.40;3.77;;;19.40;99.90;;;;;;5077114;28;20435;-35
2022/06/08 00:39:08;;;;;;;5.20;3.57;;;19.40;99.90;;;;;;5077322;28;20475;-39
2022/06/08 00:41:42;;;;;;;6.97;4.00;;;19.50;99.90;;;;;;5076855;28;20439;-47
2022/06/08 00:44:16;;;;;;;4.60;3.67;;;19.50;99.90;;;;;;5076719;28;20448;-34
2022/06/08 00:46:48;;;;;;;6.43;4.33;;;19.50;99.90;;;;;;5065390;28;20459;-38
2022/06/08 00:49:28;;;;;;;5.87;3.97;;;19.40;99.90;;;;;;5072147;28;20474;-37
2022/06/08 00:52:00;;;;;;;4.30;3.63;;;19.40;99.90;;;;;;5077150;28;20462;-37
2022/06/08 00:54:30;;;;;;;6.83;5.03;;;19.40;99.90;;;;;;5061727;28;20497;-38
2022/06/08 00:57:01;;;;;;;3.80;3.37;;;19.40;99.90;;;;;;5076486;28;20535;-37
2022/06/08 00:59:32;;;;;;;4.57;3.47;;;19.40;99.90;;;;;;5069134;28;20514;-37
2022/06/08 01:01:59;;;;;;;6.07;3.83;;;19.30;99.90;;;;;;5069553;28;20467;-37
2022/06/08 01:04:26;;;;;;;4.97;4.10;;;19.30;99.90;;;;;;5076365;28;20455;-38
2022/06/08 01:06:56;;;;;;;5.80;3.97;;;19.30;99.90;;;;;;5063191;28;20493;-38
2022/06/08 01:09:28;;;;;;;6.27;3.60;;;19.20;99.90;;;;;;5071049;28;20478;-36
2022/06/08 01:11:58;;;;;;;5.37;4.23;;;19.20;99.90;;;;;;5075942;28;20424;-40
2022/06/08 01:14:26;;;;;;;4.10;3.70;;;19.10;99.90;;;;;;5062148;28;20443;-39
2022/06/08 01:17:00;;;;;;;8.03;3.60;;;19.00;99.90;;;;;;5073103;28;20505;-38
2022/06/08 01:19:27;;;;;;;5.70;3.90;;;18.90;99.90;;;;;;5075457;28;20466;-37
2022/06/08 01:22:02;;;;;;;4.23;3.80;;;18.90;99.90;;;;;;5075302;28;20467;-37
2022/06/08 01:24:30;;;;;;;4.73;3.97;;;18.80;99.90;;;;;;5075532;28;20471;-36
2022/06/08 01:27:06;;;;;;;4.30;3.80;;;18.80;99.90;;;;;;5074709;28;20529;-39
2022/06/08 01:29:39;;;;;;;5.03;4.07;;;18.70;99.90;;;;;;5075009;28;20470;-38
2022/06/08 01:32:22;;;;;;;5.43;3.37;;;18.60;99.90;;;;;;5075877;28;20416;-38
2022/06/08 01:35:07;;;;;;;3.83;3.43;;;18.60;99.90;;;;;;5075686;28;20478;-51
2022/06/08 01:37:48;;;;;;;3.67;2.83;;;18.50;99.90;;;;;;5075704;28;20428;-39
2022/06/08 01:40:48;;;;;;;5.00;3.30;;;18.50;99.90;;;;;;5075647;28;20509;-40
2022/06/08 01:43:33;;;;;;;3.53;3.10;;;18.40;99.90;;;;;;5062089;28;20439;-37
2022/06/08 01:46:17;;;;;;;5.40;3.70;;;18.30;99.90;;;;;;5061196;28;20920;-38
2022/06/08 01:49:06;;;;;;;4.70;3.60;;;18.30;99.90;;;;;;5067740;28;20435;-37
2022/06/08 01:51:49;;;;;;;6.80;3.20;;;18.30;99.90;;;;;;5066879;28;20489;-38
2022/06/08 01:54:37;;;;;;;5.90;3.07;;;18.20;99.90;;;;;;5066543;28;20451;-36
2022/06/08 01:57:15;;;;;;;3.87;3.57;;;18.20;99.90;;;;;;5075939;28;20451;-36
2022/06/08 01:59:56;;;;;;;5.83;3.67;;;18.20;99.90;;;;;;5057039;28;20553;-39
2022/06/08 02:02:31;;;;;;;4.17;3.77;;;18.20;99.90;;;;;;5071809;28;20515;-37
2022/06/08 02:05:10;;;;;;;7.70;4.20;;;18.10;99.90;;;;;;5074843;28;20506;-38
2022/06/08 02:07:47;;;;;;;5.43;3.67;;;18.10;99.90;;;;;;5075013;28;20535;-39
2022/06/08 02:10:25;;;;;;;9.03;3.83;;;18.10;99.90;;;;;;5064289;28;20428;-39
2022/06/08 02:12:55;;;;;;;3.63;3.33;;;18.00;99.90;;;;;;5073682;28;20419;-39
2022/06/08 02:15:28;;;;;;;5.17;3.90;;;18.00;99.90;;;;;;5075146;28;20419;-37
2022/06/08 02:18:04;;;;;;;3.30;3.00;;;18.00;99.90;;;;;;5074956;28;20623;-37
2022/06/08 02:20:35;;;;;;;5.70;3.90;;;18.00;99.90;;;;;;5075367;28;20864;-34
2022/06/08 02:23:09;;;;;;;4.33;3.93;;;18.00;99.90;;;;;;5075540;28;20455;-37
2022/06/08 02:25:45;;;;;;;6.13;5.03;;;18.10;99.90;;;;;;5075117;28;20512;-37
2022/06/08 02:28:17;;;;;;;7.83;4.30;;;18.00;99.90;;;;;;5075036;28;20479;-36
2022/06/08 02:30:51;;;;;;;6.00;4.57;;;18.10;99.90;;;;;;5074637;28;20434;-42
2022/06/08 02:36:17;;;;;;;6.20;4.60;;;18.10;99.90;;;;;;5074778;28;20470;-38
2022/06/08 02:38:53;;;;;;;6.00;4.50;;;18.10;99.90;;;;;;5074877;28;20490;-35
2022/06/08 02:41:23;;;;;;;8.63;5.50;;;18.10;99.90;;;;;;5066167;28;20463;-38
2022/06/08 02:43:54;;;;;;;7.63;5.30;;;18.10;99.90;;;;;;5068563;28;20478;-37
2022/06/08 02:46:25;;;;;;;7.27;5.10;;;18.00;99.90;;;;;;5075017;28;20484;-36
2022/06/08 02:48:51;;;;;;;6.57;5.70;;;18.00;99.90;;;;;;5074549;28;20427;-37
2022/06/08 02:51:32;;;;;;;9.97;6.30;;;18.10;99.90;;;;;;5070429;28;20455;-38
2022/06/08 02:54:03;;;;;;;9.90;6.20;;;18.10;99.90;;;;;;5065160;28;20467;-36
2022/06/08 02:56:47;;;;;;;8.43;5.17;;;18.10;99.90;;;;;;5074523;28;20463;-39
2022/06/08 02:59:21;;;;;;;6.60;4.93;;;18.10;99.90;;;;;;5074458;28;20454;-36
2022/06/08 03:01:59;;;;;;;5.97;5.10;;;18.00;99.90;;;;;;5071292;28;20489;-40
2022/06/08 03:04:30;;;;;;;6.47;5.07;;;18.00;99.90;;;;;;5062358;28;20502;-38
2022/06/08 03:07:01;;;;;;;6.47;5.00;;;18.00;99.90;;;;;;5074893;28;20444;-37
2022/06/08 03:09:32;;;;;;;8.03;4.90;;;18.00;99.90;;;;;;5075010;28;20450;-39
2022/06/08 03:12:04;;;;;;;6.27;5.00;;;18.00;99.90;;;;;;5068760;28;20479;-38
2022/06/08 03:14:32;;;;;;;5.37;4.17;;;17.90;99.90;;;;;;5063995;28;20466;-47
2022/06/08 03:17:05;;;;;;;4.97;4.30;;;17.90;99.90;;;;;;5074401;28;20486;-35
2022/06/08 03:19:34;;;;;;;4.70;4.27;;;17.90;99.90;;;;;;5074290;28;20452;-38
2022/06/08 03:22:04;;;;;;;4.40;3.93;;;17.90;99.90;;;;;;5073822;28;20482;-38
2022/06/08 03:24:31;;;;;;;5.20;4.00;;;17.90;99.90;;;;;;5074186;28;20522;-36
2022/06/08 03:27:02;;;;;;;8.10;4.20;;;17.90;99.90;;;;;;5074056;28;20487;-36
2022/06/08 03:29:31;;;;;;;6.40;4.10;;;17.80;99.90;;;;;;5074182;28;20455;-38
2022/06/08 03:31:58;;;;;;;4.30;3.90;;;17.90;99.90;;;;;;5073860;28;20448;-37
2022/06/08 03:34:27;;;;;;;6.10;4.67;;;17.80;99.90;;;;;;5073799;28;20435;-39
2022/06/08 03:36:57;;;;;;;4.87;4.37;;;17.80;99.90;;;;;;5074102;28;20902;-38
2022/06/08 03:39:24;;;;;;;5.90;3.43;;;17.90;99.90;;;;;;5073537;28;20446;-38
2022/06/08 03:41:51;;;;;;;5.20;3.80;;;17.80;99.90;;;;;;5073992;28;20462;-37
2022/06/08 03:44:22;;;;;;;4.80;3.67;;;17.90;99.90;;;;;;5072866;28;20491;-37
2022/06/08 03:46:54;;;;;;;5.43;4.30;;;17.90;99.90;;;;;;5071589;28;20446;-39
2022/06/08 03:49:23;;;;;;;4.37;3.60;;;17.90;99.90;;;;;;5060981;28;20462;-40
2022/06/08 03:51:53;;;;;;;6.17;4.20;;;17.90;99.90;;;;;;5073869;28;20529;-37
2022/06/08 03:54:25;;;;;;;5.97;3.90;;;18.00;99.90;;;;;;5074951;28;20443;-35
2022/06/08 03:56:56;;;;;;;5.00;4.07;;;18.00;99.90;;;;;;5074552;28;20431;-36
2022/06/08 03:59:25;;;;;;;5.40;3.50;;;18.00;99.90;;;;;;5073540;28;20476;-38
2022/06/08 04:01:52;;;;;;;4.43;3.97;;;18.10;99.90;;;;;;5059612;28;20456;-38
2022/06/08 04:04:19;;;;;;;5.90;3.83;;;18.10;99.90;;;;;;5072483;28;20631;-36
2022/06/08 04:06:47;;;;;;;5.23;4.20;;;18.10;99.90;;;;;;5074445;28;20518;-38
2022/06/08 04:09:14;;;;;;;5.80;4.07;;;18.20;99.90;;;;;;5060603;28;20435;-38
2022/06/08 04:11:40;;;;;;;4.63;3.27;;;18.20;99.90;;;;;;5071100;28;20443;-42
2022/06/08 04:14:07;;;;;;;7.40;4.37;;;18.30;99.90;;;;;;5073134;28;20435;-41
2022/06/08 04:16:35;;;;;;;4.13;3.73;;;18.40;99.90;;;;;;5073700;28;20461;-46
2022/06/08 04:19:05;;;;;;;4.27;3.87;;;18.50;99.90;;;;;;5073565;28;20463;-38
2022/06/08 04:21:31;;;;;;;3.77;3.40;;;18.60;99.90;;;;;;5073464;28;20419;-41
2022/06/08 04:24:00;;;;;;;4.97;4.13;;;18.70;99.90;;;;;;5073672;28;20439;-38
2022/06/08 04:26:27;;;;;;;5.30;3.40;;;18.70;99.90;;;;;;5073530;28;20447;-35
2022/06/08 04:28:54;;;;;;;7.00;3.50;;;18.70;99.90;;;;;;5072970;28;20472;-44
2022/06/08 04:31:22;;;;;;;3.50;3.20;;;18.80;99.90;;;;;;5073695;28;20539;-36
2022/06/08 04:33:53;;;;;;;4.70;3.63;;;18.90;99.90;;;;;;5074348;28;20451;-39
2022/06/08 04:36:20;;;;;;;3.73;3.27;;;18.90;99.90;;;;;;5075267;28;20462;-36
2022/06/08 04:38:47;;;;;;;4.87;3.43;;;18.90;99.90;;;;;;5077319;28;20503;-37
2022/06/08 04:41:14;;;;;;;3.93;3.30;;;18.90;99.90;;;;;;5077566;28;20511;-37
2022/06/08 04:43:41;;;;;;;3.70;3.30;;;18.90;99.90;;;;;;5076442;28;20466;-38
2022/06/08 04:46:15;;;;;;;4.67;4.27;;;18.90;99.90;;;;;;5070940;28;20528;-37
2022/06/08 04:48:43;;;;;;;7.07;3.80;;;18.90;99.90;;;;;;5066330;28;20474;-37
2022/06/08 04:51:12;;;;;;;5.10;3.73;;;19.00;99.90;;;;;;5071681;28;20449;-35
2022/06/08 04:53:39;;;;;;;4.90;3.37;;;19.10;99.90;;;;;;5095093;28;20489;-37
2022/06/08 04:56:07;;;;;;;8.10;3.60;;;19.20;99.90;;;;;;5092188;28;20535;-38
2022/06/08 04:58:36;;;;;;;3.70;3.30;;;19.30;99.90;;;;;;5093825;28;20469;-37
2022/06/08 05:01:08;;;;;;;4.80;4.40;;;19.30;99.90;;;;;;5090722;28;20442;-38
2022/06/08 05:03:36;;;;;;;6.27;3.50;;;19.40;99.90;;;;;;5090885;28;20473;-39
2022/06/08 05:06:03;;;;;;;4.00;3.60;;;19.40;99.90;;;;;;5086047;28;20423;-38
2022/06/08 05:08:35;;;;;;;4.50;3.37;;;19.50;99.90;;;;;;5094358;28;20494;-38
2022/06/08 05:11:04;;;;;;;4.50;3.60;;;19.50;99.90;;;;;;5096742;28;20488;-37
2022/06/08 05:13:32;;;;;;;4.73;3.00;;;19.50;99.90;;;;;;5096755;28;20447;-33
2022/06/08 05:15:58;;;;;;;3.33;2.93;;;19.60;99.90;;;;;;5096310;28;20454;-35
2022/06/08 05:18:26;;;;;;;5.27;3.67;;;19.60;99.90;;;;;;5097217;28;20426;-35
2022/06/08 05:20:54;;;;;;;5.63;3.20;;;19.70;99.90;;;;;;5096509;28;20458;-36
2022/06/08 05:23:25;;;;;;;5.20;3.60;;;19.70;99.90;;;;;;5068419;28;20458;-36
2022/06/08 05:25:56;;;;;;;5.40;3.70;;;19.80;99.90;;;;;;5075068;28;20466;-36
2022/06/08 05:28:24;;;;;;;4.40;2.93;;;19.90;99.90;;;;;;5058902;28;20475;-37
2022/06/08 05:30:51;;;;;;;4.13;3.03;;;20.00;99.90;;;;;;5071393;28;20463;-37
2022/06/08 05:33:18;;;;;;;6.70;3.17;;;20.00;99.90;;;;;;5067946;28;20532;-38
2022/06/08 05:35:45;;;;;;;4.27;3.13;;;20.00;99.90;;;;;;5076366;28;20452;-37
2022/06/08 05:38:12;;;;;;;3.90;3.47;;;20.10;99.90;;;;;;5075775;28;20443;-37
2022/06/08 05:40:39;;;;;;;14.53;7.77;;;20.20;99.90;;;;;;5075471;28;20923;-40
2022/06/08 05:43:09;;;;;;;5.43;4.07;;;20.20;99.90;;;;;;5075406;28;20546;-37
2022/06/08 05:45:38;;;;;;;5.13;3.47;;;20.20;99.90;;;;;;5084917;28;20530;-37
2022/06/08 05:48:06;;;;;;;8.13;3.70;;;20.40;99.90;;;;;;5095117;28;20529;-39
2022/06/08 05:50:34;;;;;;;7.50;3.67;;;20.50;99.90;;;;;;5095527;28;20947;-37
2022/06/08 05:53:01;;;;;;;4.03;3.63;;;20.70;99.90;;;;;;5090543;28;20444;-36
2022/06/08 05:55:28;;;;;;;7.23;4.10;;;20.80;99.90;;;;;;5075460;28;20447;-38
2022/06/08 05:57:57;;;;;;;5.27;4.50;;;21.00;99.90;;;;;;5075541;28;20456;-38
2022/06/08 06:00:28;;;;;;;5.53;4.83;;;21.00;99.90;;;;;;5075841;28;20475;-38
2022/06/08 06:02:55;;;;;;;3.50;3.20;;;21.10;99.90;;;;;;5075589;28;20477;-37
2022/06/08 06:05:30;;;;;;;6.13;3.87;;;21.20;99.90;;;;;;5074814;28;20998;-38
2022/06/08 06:07:58;;;;;;;5.00;3.20;;;21.20;99.90;;;;;;5074472;28;20502;-38
2022/06/08 06:10:26;;;;;;;3.40;3.10;;;21.20;99.90;;;;;;5074530;28;20490;-38
2022/06/08 06:12:54;;;;;;;5.23;3.23;;;21.10;99.90;;;;;;5075109;28;20486;-36
2022/06/08 06:15:22;;;;;;;4.80;3.20;;;21.10;99.90;;;;;;5075473;28;20490;-36
2022/06/08 06:17:50;;;;;;;3.37;3.03;;;21.10;99.90;;;;;;5082281;28;20499;-35
2022/06/08 06:20:19;;;;;;;4.53;3.53;;;21.10;99.90;;;;;;5084452;28;20545;-36
2022/06/08 06:22:47;;;;;;;5.80;4.00;;;21.10;99.90;;;;;;5077942;28;20441;-40
2022/06/08 06:25:14;;;;;;;4.40;3.87;;;21.10;99.90;;;;;;5069498;28;20440;-36
2022/06/08 06:27:41;;;;;;;5.70;4.20;;;21.00;99.90;;;;;;5065132;28;20457;-36
2022/06/08 06:30:10;;;;;;;5.20;3.83;;;21.00;99.90;;;;;;5082211;28;20439;-36
2022/06/08 06:32:39;;;;;;;5.03;3.37;;;21.00;99.90;;;;;;5075138;28;20475;-38
2022/06/08 06:35:10;;;;;;;26.67;3.87;;;21.10;99.90;;;;;;5074553;28;20471;-37
2022/06/08 06:37:37;;;;;;;5.40;3.70;;;21.30;99.90;;;;;;5081639;28;20446;-39
2022/06/08 06:40:07;;;;;;;15.37;3.80;;;21.50;99.90;;;;;;5090283;28;20462;-38
2022/06/08 06:42:34;;;;;;;3.63;3.23;;;21.80;99.90;;;;;;5094727;28;20438;-38
2022/06/08 06:45:02;;;;;;;5.17;3.60;;;22.00;99.90;;;;;;5095037;28;20510;-37
2022/06/08 06:47:29;;;;;;;10.13;3.03;;;22.20;99.90;;;;;;5095051;28;20502;-36
2022/06/08 06:49:56;;;;;;;4.93;2.90;;;22.30;99.90;;;;;;5095202;28;20510;-37
2022/06/08 06:52:25;;;;;;;8.20;5.17;;;22.40;99.90;;;;;;5094547;28;20443;-37
2022/06/08 06:54:52;;;;;;;4.70;3.27;;;22.50;99.90;;;;;;5094640;28;20510;-35
2022/06/08 06:57:19;;;;;;;6.90;2.50;;;22.50;99.90;;;;;;5095328;28;20427;-39
2022/06/08 06:59:46;;;;;;;4.00;3.07;;;22.70;99.90;;;;;;5094117;28;20476;-34
2022/06/08 07:02:14;;;;;;;3.20;2.30;;;22.70;99.90;;;;;;5094571;28;20497;-37
2022/06/08 07:04:43;;;;;;;3.40;2.87;;;22.80;99.90;;;;;;5094331;28;20434;-40
2022/06/08 07:07:10;;;;;;;6.13;3.07;;;22.70;99.90;;;;;;5094678;28;20526;-37
2022/06/08 07:09:38;;;;;;;2.87;2.63;;;22.70;99.90;;;;;;5093683;28;20545;-39
2022/06/08 07:12:07;;;;;;;3.13;2.53;;;22.60;99.90;;;;;;5094021;28;20461;-40
2022/06/08 07:14:34;;;;;;;10.53;2.97;;;22.60;99.90;;;;;;5093987;28;20431;-38
2022/06/08 07:17:01;;;;;;;3.20;2.30;;;22.80;99.90;;;;;;5093435;28;20435;-40
2022/06/08 07:19:28;;;;;;;3.67;2.50;;;23.00;99.90;;;;;;5093487;28;20477;-38
2022/06/08 07:21:55;;;;;;;4.83;2.50;;;23.20;99.90;;;;;;5073980;28;20452;-39
2022/06/08 07:24:25;;;;;;;4.70;2.80;;;23.40;99.90;;;;;;5074040;28;20467;-39
2022/06/08 07:26:53;;;;;;;4.00;2.60;;;23.70;99.90;;;;;;5073008;28;20463;-37
2022/06/08 07:29:20;;;;;;;2.83;2.63;;;24.20;99.90;;;;;;5094191;28;20458;-42
2022/06/08 07:31:47;;;;;;;3.17;2.93;;;25.00;99.90;;;;;;5094259;28;20582;-36
2022/06/08 07:34:15;;;;;;;4.13;2.20;;;26.20;99.90;;;;;;5094316;28;20431;-44
2022/06/08 07:36:44;;;;;;;2.50;2.30;;;27.90;98.50;;;;;;5094602;28;20481;-37
2022/06/08 07:39:13;;;;;;;2.93;2.17;;;29.30;92.30;;;;;;5093806;28;20449;-38
2022/06/08 07:41:42;;;;;;;4.60;2.30;;;29.60;87.20;;;;;;5093121;28;20446;-37
2022/06/08 07:44:10;;;;;;;3.07;2.47;;;29.50;85.20;;;;;;5093753;28;20422;-40
2022/06/08 07:46:38;;;;;;;2.40;2.20;;;29.50;83.30;;;;;;5093428;28;20470;-37
2022/06/08 07:51:53;;;;;;;2.87;2.67;;;29.90;80.50;;;;;;5062155;28;20423;-38
2022/06/08 07:54:22;;;;;;;4.30;2.50;;;29.80;79.00;;;;;;5073006;28;20419;-38
2022/06/08 07:56:49;;;;;;;3.30;3.00;;;29.30;80.10;;;;;;5073361;28;20924;-36
2022/06/08 07:59:17;;;;;;;2.40;2.20;;;28.40;81.60;;;;;;5074165;28;20455;-43
2022/06/08 08:01:44;;;;;;;3.43;2.93;;;27.80;83.20;;;;;;5073469;28;20450;-38
2022/06/08 08:04:10;;;;;;;7.20;2.23;;;27.50;86.30;;;;;;5072890;28;20455;-38
2022/06/08 08:06:37;;;;;;;4.10;2.40;;;27.80;85.50;;;;;;5073952;28;20503;-39
2022/06/08 08:09:04;;;;;;;2.10;1.90;;;27.60;85.20;;;;;;5074434;28;20574;-40
2022/06/08 08:11:31;;;;;;;4.07;2.57;;;27.10;87.80;;;;;;5076574;28;20488;-37
2022/06/08 08:13:58;;;;;;;3.17;2.03;;;27.50;87.10;;;;;;5077670;28;20459;-36
2022/06/08 08:16:26;;;;;;;2.67;2.40;;;28.40;84.80;;;;;;5078189;28;20560;-38
2022/06/08 08:18:53;;;;;;;4.00;3.07;;;29.60;82.80;;;;;;5078107;28;20501;-47
2022/06/08 08:21:19;;;;;;;2.77;2.20;;;30.80;76.30;;;;;;5076802;28;20495;-39
2022/06/08 08:23:46;;;;;;;2.13;1.80;;;31.70;71.80;;;;;;5077055;28;20466;-37
2022/06/08 08:26:14;;;;;;;2.47;2.13;;;32.20;68.70;;;;;;5077206;28;20450;-37
2022/06/08 08:28:41;;;;;;;2.60;2.20;;;32.70;64.80;;;;;;5076776;28;20483;-39
2022/06/08 08:31:08;;;;;;;3.70;2.40;;;32.80;63.70;;;;;;5076896;28;20450;-38
2022/06/08 08:33:36;;;;;;;4.63;2.40;;;32.70;62.60;;;;;;5077092;28;20463;-39
2022/06/08 08:36:04;;;;;;;3.90;2.77;;;31.80;63.00;;;;;;5077099;28;20431;-39
2022/06/08 08:38:31;;;;;;;2.43;2.20;;;31.10;65.70;;;;;;5076812;28;20462;-38
2022/06/08 08:41:02;;;;;;;1.93;1.80;;;31.40;64.90;;;;;;5077525;28;20467;-38
2022/06/08 08:43:31;;;;;;;2.53;2.33;;;32.10;63.40;;;;;;5077463;28;20471;-40
2022/06/08 08:46:17;;;;;;;1.90;1.70;;;32.00;61.60;;;;;;5077595;28;20423;-36
2022/06/08 08:48:51;;;;;;;2.50;1.40;;;32.10;61.50;;;;;;5083732;28;20481;-39
2022/06/08 08:51:21;;;;;;;2.00;1.90;;;32.70;59.00;;;;;;5078709;28;20495;-36
2022/06/08 08:53:59;;;;;;;3.00;2.40;;;33.20;57.90;;;;;;5085927;28;20470;-37
2022/06/08 08:56:31;;;;;;;2.17;1.67;;;34.20;56.60;;;;;;5081643;28;20431;-38
2022/06/08 08:59:00;;;;;;;1.70;1.60;;;34.90;54.20;;;;;;5084089;28;20475;-40
2022/06/08 09:01:30;;;;;;;1.50;1.37;;;35.30;52.50;;;;;;5084463;28;20955;-37
2022/06/08 09:04:04;;;;;;;1.67;1.57;;;34.80;52.20;;;;;;5077960;28;20416;-44
2022/06/08 09:06:33;;;;;;;6.67;4.57;;;34.00;53.30;;;;;;5079873;28;20670;-39
2022/06/08 09:09:04;;;;;;;5.00;2.03;;;33.30;54.00;;;;;;5070665;28;20589;-37
2022/06/08 09:11:36;;;;;;;2.30;1.83;;;32.40;54.80;;;;;;5071225;28;20487;-37
2022/06/08 09:14:08;;;;;;;4.70;2.17;;;32.00;56.20;;;;;;5071224;28;20470;-40
2022/06/08 09:16:38;;;;;;;2.37;2.10;;;31.70;56.80;;;;;;5073495;28;20481;-38
2022/06/08 09:19:32;;;;;;;10.30;5.93;;;32.20;56.70;;;;;;5073987;28;20508;-39
2022/06/08 09:22:21;;;;;;;2.50;2.20;;;32.10;56.00;;;;;;5072599;28;20459;-38
2022/06/08 09:24:51;;;;;;;2.43;1.73;;;31.90;57.20;;;;;;5072726;28;20431;-39
2022/06/08 09:27:23;;;;;;;2.70;1.90;;;32.50;56.10;;;;;;5073386;28;20471;-37
2022/06/08 09:30:03;;;;;;;2.60;1.80;;;33.00;54.30;;;;;;5073064;28;20471;-40
2022/06/08 09:32:33;;;;;;;1.60;1.50;;;33.40;53.40;;;;;;5081504;28;20492;-38
2022/06/08 09:35:04;;;;;;;4.10;1.77;;;33.90;53.10;;;;;;5081777;28;20461;-39
2022/06/08 09:37:32;;;;;;;1.97;1.40;;;34.30;51.80;;;;;;5081875;28;20831;-41
2022/06/08 09:40:02;;;;;;;2.00;1.70;;;34.30;50.90;;;;;;5091842;28;20515;-37
2022/06/08 09:42:50;;;;;;;2.63;1.90;;;33.90;51.30;;;;;;5091315;28;20475;-47
2022/06/08 09:45:30;;;;;;;5.00;4.07;;;33.40;52.50;;;;;;5086479;28;20431;-40
2022/06/08 09:53:44;;;;;;;2.80;1.77;;;32.50;53.20;;;;;;5079560;28;20459;-39
2022/06/08 09:56:20;;;;;;;1.50;1.40;;;32.20;53.90;;;;;;5074045;28;20510;-36
2022/06/08 09:59:12;;;;;;;1.60;1.50;;;32.50;53.50;;;;;;5078603;28;20458;-37
2022/06/08 10:01:45;;;;;;;1.83;1.63;;;33.00;53.30;;;;;;5085596;28;20545;-37
2022/06/08 10:04:26;;;;;;;4.37;1.23;;;33.40;52.20;;;;;;5092480;28;20470;-38
2022/06/08 10:06:59;;;;;;;1.63;1.53;;;32.90;51.90;;;;;;5090897;28;20533;-38
2022/06/08 10:09:35;;;;;;;1.57;1.47;;;32.30;53.10;;;;;;5090701;28;20492;-39
2022/06/08 10:12:12;;;;;;;3.43;3.23;;;31.40;54.10;;;;;;5090752;28;20434;-38
2022/06/08 10:14:44;;;;;;;2.40;1.80;;;30.70;55.20;;;;;;5089577;28;20473;-39
2022/06/08 10:17:17;;;;;;;3.07;2.10;;;29.90;56.30;;;;;;5079158;28;20450;-38
2022/06/08 10:19:54;;;;;;;2.50;1.53;;;29.40;57.80;;;;;;5075309;28;20467;-38
2022/06/08 10:22:27;;;;;;;4.27;2.30;;;29.00;58.80;;;;;;5070858;28;20514;-38
2022/06/08 10:24:59;;;;;;;9.60;4.13;;;29.10;59.10;;;;;;5070752;28;20466;-35
2022/06/08 10:27:31;;;;;;;2.80;1.90;;;29.30;58.90;;;;;;5069329;28;20483;-36
2022/06/08 10:30:07;;;;;;;2.57;1.57;;;29.20;60.20;;;;;;5067201;28;20546;-38
2022/06/08 10:32:44;;;;;;;1.97;1.70;;;29.00;60.10;;;;;;5070148;28;20501;-37
2022/06/08 10:35:28;;;;;;;2.70;2.50;;;28.80;61.50;;;;;;5069701;28;20485;-36
2022/06/08 10:37:58;;;;;;;2.47;2.00;;;28.40;62.80;;;;;;5055461;28;20455;-37
2022/06/08 10:40:28;;;;;;;1.80;1.70;;;28.00;63.20;;;;;;5070504;28;20519;-36
2022/06/08 10:42:54;;;;;;;3.03;1.77;;;27.50;63.10;;;;;;5070150;28;20527;-37
2022/06/08 10:45:55;;;;;;;2.73;2.40;;;27.00;64.30;;;;;;5070585;28;20562;-38
2022/06/08 10:48:35;;;;;;;2.20;2.00;;;26.70;65.70;;;;;;4975118;28;20463;-37
2022/06/08 10:51:37;;;;;;;2.10;1.90;;;26.50;68.10;;;;;;5060830;28;20501;-37
2022/06/08 10:54:55;;;;;;;4.30;2.07;;;26.40;68.90;;;;;;5072378;28;20458;-39
2022/06/08 10:57:43;;;;;;;4.13;1.97;;;26.10;69.70;;;;;;5051832;28;20445;-37
2022/06/08 11:01:09;;;;;;;2.53;2.33;;;25.90;70.40;;;;;;5059347;28;20442;-42
2022/06/08 11:03:54;;;;;;;2.60;2.07;;;25.60;71.50;;;;;;5071541;28;20449;-36
2022/06/08 11:06:57;;;;;;;2.27;2.07;;;25.40;72.70;;;;;;5071023;28;20482;-38
2022/06/08 11:09:48;;;;;;;3.03;1.57;;;25.30;73.20;;;;;;5070935;28;20477;-38
2022/06/08 11:12:50;;;;;;;2.37;2.00;;;25.20;74.40;;;;;;5072185;28;20471;-38
2022/06/08 11:15:39;;;;;;;2.80;2.00;;;25.10;74.50;;;;;;5072741;28;20435;-38
2022/06/08 11:18:17;;;;;;;2.10;1.80;;;25.10;75.00;;;;;;5036807;28;20466;-39
2022/06/08 11:20:48;;;;;;;1.70;1.60;;;25.10;75.70;;;;;;5052000;28;20420;-38
2022/06/08 11:23:20;;;;;;;3.47;2.57;;;25.00;75.90;;;;;;5051959;28;20508;-37
2022/06/08 11:25:52;;;;;;;5.57;2.70;;;25.00;76.70;;;;;;5052132;28;20528;-38
2022/06/08 11:28:32;;;;;;;3.53;1.90;;;24.90;76.10;;;;;;5051119;28;20463;-39
2022/06/08 11:31:03;;;;;;;4.00;1.80;;;24.90;76.80;;;;;;5050864;28;20579;-39
2022/06/08 11:33:50;;;;;;;1.93;1.60;;;24.80;77.10;;;;;;5051532;28;20420;-38
2022/06/08 11:36:29;;;;;;;2.00;1.40;;;24.70;78.40;;;;;;5050892;28;20460;-38
2022/06/08 11:39:04;;;;;;;4.90;4.40;;;24.70;78.60;;;;;;5050885;28;20428;-37
2022/06/08 11:41:38;;;;;;;2.33;2.13;;;24.70;79.40;;;;;;5069743;28;20959;-40
2022/06/08 11:44:19;;;;;;;2.50;1.87;;;24.70;78.90;;;;;;5072603;28;20438;-38
2022/06/08 11:46:49;;;;;;;2.60;2.20;;;24.80;79.30;;;;;;5077401;28;20437;-38
2022/06/08 11:49:37;;;;;;;2.90;2.07;;;25.10;79.40;;;;;;5076088;28;20431;-40
2022/06/08 11:52:28;;;;;;;2.67;1.93;;;25.40;78.90;;;;;;5075822;28;20470;-36
2022/06/08 11:55:08;;;;;;;1.73;1.60;;;25.50;77.30;;;;;;5076091;28;20454;-37
2022/06/08 11:57:39;;;;;;;1.77;1.57;;;25.60;78.40;;;;;;5083293;28;20480;-39
2022/06/08 12:00:18;;;;;;;3.57;2.10;;;25.60;78.00;;;;;;5092878;28;20441;-38
2022/06/08 12:02:47;;;;;;;2.87;2.00;;;25.60;78.60;;;;;;5053935;28;20436;-35
2022/06/08 12:05:23;;;;;;;1.70;1.60;;;25.60;77.50;;;;;;5053847;28;20500;-36
2022/06/08 12:07:59;;;;;;;18.33;12.30;;;25.50;77.40;;;;;;5053120;28;20456;-39
2022/06/08 12:10:28;;;;;;;5.70;4.13;;;25.50;78.40;;;;;;5043833;28;20478;-41
2022/06/08 12:12:58;;;;;;;3.00;2.70;;;25.50;78.10;;;;;;5056031;28;20427;-36
2022/06/08 12:15:35;;;;;;;4.20;3.80;;;25.60;78.20;;;;;;5056378;28;20468;-37
2022/06/08 12:18:23;;;;;;;5.90;4.67;;;25.70;76.80;;;;;;5056047;28;20497;-38
2022/06/08 12:21:03;;;;;;;2.43;1.87;;;25.60;76.90;;;;;;5054940;28;20527;-38
2022/06/08 12:23:42;;;;;;;3.50;2.63;;;25.60;77.70;;;;;;5055365;28;20447;-37
2022/06/08 12:26:22;;;;;;;2.83;1.83;;;25.70;78.50;;;;;;5045858;28;20617;-40
2022/06/08 12:29:01;;;;;;;3.10;1.80;;;26.10;76.10;;;;;;5050628;28;20416;-41
2022/06/08 12:31:31;;;;;;;4.73;1.80;;;26.40;74.90;;;;;;5042978;28;20498;-38
2022/06/08 12:33:58;;;;;;;2.70;1.63;;;26.60;73.20;;;;;;5057335;28;20446;-35
2022/06/08 12:36:30;;;;;;;2.77;1.60;;;26.70;73.70;;;;;;5056728;28;20468;-42
2022/06/08 12:39:03;;;;;;;2.90;1.27;;;26.80;72.50;;;;;;5056882;28;20428;-37
2022/06/08 12:41:42;;;;;;;1.20;1.10;;;26.80;71.90;;;;;;5055056;28;20507;-40
2022/06/08 12:44:18;;;;;;;1.63;1.37;;;26.90;73.10;;;;;;5056280;28;20492;-38
2022/06/08 12:46:53;;;;;;;1.60;1.30;;;27.20;72.10;;;;;;5056036;28;20434;-41
2022/06/08 12:49:24;;;;;;;1.90;1.60;;;27.40;72.80;;;;;;5056430;28;20438;-39
2022/06/08 12:51:53;;;;;;;1.60;1.30;;;27.50;69.80;;;;;;5055920;28;20452;-37
2022/06/08 12:54:27;;;;;;;2.37;1.40;;;27.40;69.80;;;;;;5047727;28;20471;-38
2022/06/08 12:56:56;;;;;;;2.07;1.60;;;27.30;70.20;;;;;;5051956;28;20464;-42
2022/06/08 12:59:26;;;;;;;2.37;2.20;;;27.10;71.20;;;;;;5055702;28;20472;-37
2022/06/08 13:01:56;;;;;;;1.63;1.50;;;27.00;72.10;;;;;;5039345;28;20535;-37
2022/06/08 13:04:25;;;;;;;3.50;1.50;;;27.00;71.70;;;;;;5054603;28;20535;-38
2022/06/08 13:06:52;;;;;;;1.60;1.50;;;26.90;71.40;;;;;;5056780;28;20459;-35
2022/06/08 13:09:21;;;;;;;2.03;1.80;;;26.80;71.00;;;;;;5055743;28;20463;-36
2022/06/08 13:11:58;;;;;;;1.87;1.23;;;26.60;71.90;;;;;;5056490;28;20485;-38
2022/06/08 13:14:27;;;;;;;1.90;1.30;;;26.50;72.00;;;;;;5056857;28;20420;-39
2022/06/08 13:16:54;;;;;;;1.83;1.47;;;26.30;71.60;;;;;;5055691;28;20456;-38
2022/06/08 13:19:20;;;;;;;1.87;1.73;;;26.20;72.30;;;;;;5041338;28;20512;-40
2022/06/08 13:21:51;;;;;;;2.00;1.60;;;26.10;72.80;;;;;;5052223;28;20507;-38
2022/06/08 13:24:18;;;;;;;1.50;1.37;;;26.00;72.60;;;;;;5054572;28;20435;-39